Time;durP1;ratioP1;P1;durP2;ratioP2;P2;SDS_P1;SDS_P2;PMS_P1;PMS_P2;Temp;Humidity;BMP_temperature;BMP_pressure;BME280_temperature;BME280_humidity;BME280_pressure;Samples;Min_cycle;Max_cycle;Signal;HPM_P1;HPM_P2
2021/10/25 00:02:02;;;;;;;18.38;10.27;;;7.00;99.90;;;;;;5012538;28;20557;-59
2021/10/25 00:04:28;;;;;;;17.17;9.93;;;6.90;99.90;;;;;;5015923;28;20026;-60
2021/10/25 00:06:53;;;;;;;13.75;9.85;;;6.90;99.90;;;;;;4993377;28;20497;-60
2021/10/25 00:09:19;;;;;;;12.68;9.45;;;6.90;99.90;;;;;;5013548;28;20149;-60
2021/10/25 00:11:45;;;;;;;14.40;9.70;;;6.90;99.90;;;;;;5011535;28;20022;-59
2021/10/25 00:14:11;;;;;;;16.23;10.20;;;6.90;99.90;;;;;;5019306;28;20030;-59
2021/10/25 00:16:38;;;;;;;16.88;10.10;;;6.90;99.90;;;;;;5014352;28;20032;-60
2021/10/25 00:19:04;;;;;;;13.52;8.98;;;6.90;99.90;;;;;;5024465;28;20052;-59
2021/10/25 00:21:29;;;;;;;13.65;9.90;;;6.80;99.90;;;;;;5014722;28;20029;-60
2021/10/25 00:23:55;;;;;;;16.20;9.82;;;6.80;99.90;;;;;;5005002;28;20054;-60
2021/10/25 00:26:21;;;;;;;12.13;9.55;;;6.80;99.90;;;;;;5019916;28;20026;-60
2021/10/25 00:28:46;;;;;;;14.15;8.75;;;6.80;99.90;;;;;;5024957;28;20038;-60
2021/10/25 00:31:13;;;;;;;14.10;9.32;;;6.70;99.90;;;;;;5016062;28;20096;-60
2021/10/25 00:33:38;;;;;;;14.13;9.45;;;6.70;99.90;;;;;;5020858;28;20029;-60
2021/10/25 00:36:04;;;;;;;13.70;9.77;;;6.70;99.90;;;;;;5021175;28;20018;-60
2021/10/25 00:38:29;;;;;;;16.50;10.57;;;6.70;99.90;;;;;;5020122;28;20029;-60
2021/10/25 00:40:55;;;;;;;12.55;9.52;;;6.70;99.90;;;;;;5024767;28;20512;-60
2021/10/25 00:43:20;;;;;;;14.48;9.73;;;6.70;99.90;;;;;;5014450;28;20018;-60
2021/10/25 00:45:46;;;;;;;13.70;9.57;;;6.60;99.90;;;;;;5020425;28;20025;-60
2021/10/25 00:48:12;;;;;;;12.68;9.05;;;6.60;99.90;;;;;;5018655;28;20022;-60
2021/10/25 00:50:39;;;;;;;14.98;9.43;;;6.60;99.90;;;;;;5016460;28;20057;-60
2021/10/25 00:53:06;;;;;;;15.27;10.27;;;6.60;99.90;;;;;;5022247;28;20450;-59
2021/10/25 00:55:32;;;;;;;16.63;9.27;;;6.60;99.90;;;;;;5025407;28;20057;-60
2021/10/25 00:57:58;;;;;;;14.73;9.27;;;6.60;99.90;;;;;;5019262;28;20517;-59
2021/10/25 01:00:24;;;;;;;13.35;9.85;;;6.60;99.90;;;;;;5020453;28;20119;-60
2021/10/25 01:02:49;;;;;;;15.10;10.23;;;6.60;99.90;;;;;;5015417;28;20563;-60
2021/10/25 01:05:15;;;;;;;15.25;10.20;;;6.60;99.90;;;;;;5019276;28;20030;-60
2021/10/25 01:07:41;;;;;;;13.32;9.60;;;6.60;99.90;;;;;;5006532;28;20398;-60
2021/10/25 01:10:08;;;;;;;11.80;10.15;;;6.60;99.90;;;;;;5018899;28;20054;-60
2021/10/25 01:12:35;;;;;;;14.63;9.95;;;6.60;99.90;;;;;;5016328;28;20094;-60
2021/10/25 01:15:00;;;;;;;13.68;9.50;;;6.60;99.90;;;;;;5018970;28;20064;-60
2021/10/25 01:17:27;;;;;;;14.23;9.23;;;6.60;99.90;;;;;;5022808;28;20097;-60
2021/10/25 01:19:54;;;;;;;13.93;9.57;;;6.60;99.90;;;;;;5015271;28;20581;-59
2021/10/25 01:22:22;;;;;;;12.88;9.45;;;6.60;99.90;;;;;;5014227;28;20753;-60
2021/10/25 01:24:50;;;;;;;13.43;8.38;;;6.60;99.90;;;;;;5023539;28;20033;-60
2021/10/25 01:27:16;;;;;;;15.43;9.27;;;6.60;99.90;;;;;;5017305;28;20037;-60
2021/10/25 01:29:42;;;;;;;12.02;8.80;;;6.60;99.90;;;;;;5008553;28;20032;-60
2021/10/25 01:32:07;;;;;;;11.68;9.20;;;6.60;99.90;;;;;;5015789;28;20026;-60
2021/10/25 01:34:33;;;;;;;12.07;7.93;;;6.50;99.90;;;;;;5013116;28;20610;-60
2021/10/25 01:36:58;;;;;;;13.40;8.55;;;6.50;99.90;;;;;;5017682;28;20021;-59
2021/10/25 01:39:24;;;;;;;14.85;8.55;;;6.50;99.90;;;;;;5018193;28;20046;-59
2021/10/25 01:41:50;;;;;;;10.02;7.82;;;6.50;99.90;;;;;;5015677;28;20148;-60
2021/10/25 01:44:15;;;;;;;11.00;8.30;;;6.50;99.90;;;;;;5015815;28;20021;-60
2021/10/25 01:46:42;;;;;;;15.02;8.88;;;6.50;99.90;;;;;;5003180;28;20064;-60
2021/10/25 01:49:08;;;;;;;11.73;7.88;;;6.50;99.90;;;;;;5018089;28;20028;-60
2021/10/25 01:51:33;;;;;;;12.10;8.18;;;6.50;99.90;;;;;;5004809;28;20108;-60
2021/10/25 01:53:59;;;;;;;13.85;8.90;;;6.50;99.90;;;;;;5015690;28;20033;-59
2021/10/25 01:56:26;;;;;;;10.73;8.05;;;6.50;99.90;;;;;;5012177;28;20022;-59
2021/10/25 01:58:51;;;;;;;14.05;8.48;;;6.60;99.90;;;;;;4983329;28;20025;-59
2021/10/25 02:01:17;;;;;;;12.98;8.43;;;6.60;99.90;;;;;;5003311;28;20021;-60
2021/10/25 02:03:43;;;;;;;12.68;9.57;;;6.60;99.90;;;;;;4994874;28;20097;-59
2021/10/25 02:06:08;;;;;;;12.70;8.50;;;6.70;99.90;;;;;;5017817;28;20029;-60
2021/10/25 02:08:34;;;;;;;12.88;8.45;;;6.80;99.90;;;;;;5015185;28;20030;-60
2021/10/25 02:11:00;;;;;;;8.85;7.30;;;6.90;99.90;;;;;;5012326;28;20026;-59
2021/10/25 02:13:25;;;;;;;12.40;8.75;;;6.90;99.90;;;;;;5016160;28;20028;-60
2021/10/25 02:15:53;;;;;;;11.27;8.05;;;7.00;99.90;;;;;;5017114;28;20018;-60
2021/10/25 02:18:19;;;;;;;13.23;8.25;;;7.00;99.90;;;;;;5013892;28;20022;-60
2021/10/25 02:20:45;;;;;;;14.57;8.55;;;7.00;99.90;;;;;;5016839;28;20076;-60
2021/10/25 02:23:10;;;;;;;11.18;8.20;;;7.10;99.90;;;;;;5007354;28;20018;-59
2021/10/25 02:25:36;;;;;;;11.48;7.95;;;7.10;99.90;;;;;;5024406;28;20022;-59
2021/10/25 02:28:03;;;;;;;11.73;8.15;;;7.20;99.90;;;;;;5021633;28;20053;-59
2021/10/25 02:30:29;;;;;;;10.50;7.72;;;7.20;99.90;;;;;;5015841;28;20029;-60
2021/10/25 02:32:56;;;;;;;9.75;7.28;;;7.30;99.90;;;;;;4999060;28;20060;-60
2021/10/25 02:35:22;;;;;;;12.75;7.75;;;7.30;99.90;;;;;;5016975;28;20022;-60
2021/10/25 02:37:47;;;;;;;12.93;8.07;;;7.40;99.90;;;;;;5017204;28;20026;-59
2021/10/25 02:40:13;;;;;;;14.55;8.88;;;7.30;99.90;;;;;;5021814;28;20026;-60
2021/10/25 02:42:39;;;;;;;10.85;7.35;;;7.40;99.90;;;;;;5018239;28;20091;-59
2021/10/25 02:45:05;;;;;;;11.32;7.90;;;7.40;99.90;;;;;;5013283;28;20021;-59
2021/10/25 02:47:31;;;;;;;12.40;7.30;;;7.40;99.90;;;;;;5014648;28;20030;-60
2021/10/25 02:49:57;;;;;;;10.77;6.65;;;7.40;99.90;;;;;;5002493;28;20060;-59
2021/10/25 02:52:23;;;;;;;10.65;7.35;;;7.50;99.90;;;;;;5017124;28;20018;-60
2021/10/25 02:54:49;;;;;;;10.73;7.07;;;7.50;99.90;;;;;;5018967;28;20029;-60
2021/10/25 02:57:15;;;;;;;10.73;7.32;;;7.50;99.90;;;;;;5015857;28;20021;-60
2021/10/25 02:59:41;;;;;;;11.82;8.30;;;7.50;99.90;;;;;;5023499;28;20026;-60
2021/10/25 03:02:07;;;;;;;13.90;7.55;;;7.50;99.90;;;;;;5009737;28;20394;-60
2021/10/25 03:04:33;;;;;;;12.40;7.72;;;7.60;99.90;;;;;;5016193;28;20025;-60
2021/10/25 03:06:58;;;;;;;14.00;8.38;;;7.60;99.90;;;;;;4999444;28;20021;-60
2021/10/25 03:09:24;;;;;;;10.48;7.75;;;7.60;99.90;;;;;;4999132;28;20101;-60
2021/10/25 03:11:49;;;;;;;14.32;7.20;;;7.60;99.90;;;;;;5014232;28;20050;-60
2021/10/25 03:14:15;;;;;;;9.25;6.88;;;7.70;99.90;;;;;;5011651;28;20391;-59
2021/10/25 03:16:41;;;;;;;12.95;8.23;;;7.70;99.90;;;;;;5014230;28;20104;-60
2021/10/25 03:19:06;;;;;;;11.07;7.28;;;7.70;99.90;;;;;;5013491;28;20040;-60
2021/10/25 03:21:32;;;;;;;11.70;6.55;;;7.80;99.90;;;;;;5016249;28;20018;-59
2021/10/25 03:23:59;;;;;;;10.85;6.75;;;7.80;99.90;;;;;;5019613;28;20447;-59
2021/10/25 03:26:25;;;;;;;11.55;6.53;;;7.80;99.90;;;;;;5013920;28;20108;-60
2021/10/25 03:28:50;;;;;;;9.35;6.90;;;7.90;99.90;;;;;;5018019;28;20056;-60
2021/10/25 03:31:19;;;;;;;9.00;6.15;;;7.90;99.90;;;;;;5017627;28;20382;-59
2021/10/25 03:33:45;;;;;;;11.35;7.03;;;7.90;99.90;;;;;;5017799;28;20060;-60
2021/10/25 03:36:44;;;;;;;9.93;5.97;;;8.00;99.90;;;;;;5013303;28;20025;-60
2021/10/25 03:39:10;;;;;;;11.60;6.82;;;8.00;99.90;;;;;;5014066;28;20532;-60
2021/10/25 03:41:39;;;;;;;9.52;6.72;;;8.00;99.90;;;;;;5016723;28;20026;-60
2021/10/25 03:44:17;;;;;;;13.90;6.67;;;8.00;99.90;;;;;;5015635;28;20071;-60
2021/10/25 03:46:55;;;;;;;10.00;6.28;;;8.10;99.90;;;;;;5015826;28;20249;-60
2021/10/25 03:49:38;;;;;;;8.98;5.88;;;8.10;99.90;;;;;;5014724;28;20089;-60
2021/10/25 03:52:14;;;;;;;9.13;6.30;;;8.10;99.90;;;;;;5017895;28;20029;-60
2021/10/25 03:55:20;;;;;;;9.73;6.10;;;8.10;99.90;;;;;;5017903;28;20030;-60
2021/10/25 04:25:13;;;;;;;11.35;6.40;;;8.30;99.90;;;;;;5014508;28;20065;-60
2021/10/25 04:27:31;;;;;;;13.02;6.15;;;8.40;99.90;;;;;;5019368;28;20536;-60
2021/10/25 04:30:05;;;;;;;13.27;6.25;;;8.40;99.90;;;;;;5019816;28;20421;-60
2021/10/25 04:32:30;;;;;;;10.20;6.40;;;8.40;99.90;;;;;;5017106;28;20436;-60
2021/10/25 04:34:56;;;;;;;9.13;6.50;;;8.40;99.90;;;;;;5020311;28;20459;-59
2021/10/25 04:37:21;;;;;;;11.30;6.88;;;8.50;99.90;;;;;;5021633;28;20113;-59
2021/10/25 04:39:47;;;;;;;9.95;6.00;;;8.50;99.90;;;;;;5001473;28;20026;-60
2021/10/25 04:42:16;;;;;;;8.95;6.03;;;8.50;99.90;;;;;;5020006;28;20385;-60
2021/10/25 04:44:43;;;;;;;13.40;5.90;;;8.50;99.90;;;;;;5013958;28;20552;-60
2021/10/25 04:47:09;;;;;;;12.43;6.13;;;8.50;99.90;;;;;;5009426;28;20028;-60
2021/10/25 04:49:34;;;;;;;8.68;5.90;;;8.50;99.90;;;;;;5017333;28;20104;-60
2021/10/25 04:52:00;;;;;;;10.43;7.15;;;8.60;99.90;;;;;;5019265;28;20029;-59
2021/10/25 04:54:25;;;;;;;9.80;5.90;;;8.60;99.90;;;;;;5001142;28;20040;-60
2021/10/25 04:56:51;;;;;;;9.13;6.68;;;8.60;99.90;;;;;;5013661;28;20030;-60
2021/10/25 04:59:17;;;;;;;9.88;5.90;;;8.60;99.90;;;;;;5019239;28;20099;-60
2021/10/25 05:01:42;;;;;;;8.70;6.10;;;8.60;99.90;;;;;;5014366;28;20477;-60
2021/10/25 05:04:08;;;;;;;14.57;6.57;;;8.60;99.90;;;;;;5000425;28;20113;-59
2021/10/25 05:06:34;;;;;;;9.45;5.75;;;8.60;99.90;;;;;;5013872;28;20029;-60
2021/10/25 05:08:59;;;;;;;12.82;6.25;;;8.70;99.90;;;;;;5019122;28;20022;-60
2021/10/25 05:11:25;;;;;;;9.98;5.47;;;8.70;99.90;;;;;;5021779;28;20033;-60
2021/10/25 05:13:50;;;;;;;9.68;5.78;;;8.70;99.90;;;;;;5013431;28;20025;-60
2021/10/25 05:16:16;;;;;;;11.27;5.85;;;8.70;99.90;;;;;;5013728;28;20478;-60
2021/10/25 05:18:42;;;;;;;8.05;5.53;;;8.70;99.90;;;;;;5022752;28;20109;-60
2021/10/25 05:21:07;;;;;;;9.68;5.40;;;8.70;99.90;;;;;;5009917;28;20470;-60
2021/10/25 05:23:33;;;;;;;11.90;5.80;;;8.70;99.90;;;;;;5016083;28;20061;-60
2021/10/25 05:25:58;;;;;;;14.40;5.88;;;8.80;99.90;;;;;;5021593;28;20463;-60
2021/10/25 05:28:24;;;;;;;10.65;5.18;;;8.80;99.90;;;;;;5013241;28;20050;-60
2021/10/25 05:30:49;;;;;;;10.77;5.35;;;8.80;99.90;;;;;;5018898;28;20037;-59
2021/10/25 05:33:15;;;;;;;8.38;4.90;;;8.80;99.90;;;;;;5021179;28;20072;-60
2021/10/25 05:35:42;;;;;;;8.25;4.95;;;8.80;99.90;;;;;;5013260;28;20092;-60
2021/10/25 05:38:07;;;;;;;8.15;5.45;;;8.80;99.90;;;;;;5021055;28;20014;-59
2021/10/25 05:40:33;;;;;;;10.15;5.30;;;8.80;99.90;;;;;;5011233;28;20033;-60
2021/10/25 05:43:01;;;;;;;7.72;5.20;;;8.80;99.90;;;;;;5007297;28;20079;-60
2021/10/25 05:45:42;;;;;;;10.10;5.35;;;8.90;99.90;;;;;;5013465;28;20049;-60
2021/10/25 05:48:23;;;;;;;;;;;;;;;;;;;;;
2021/10/25 05:50:54;;;;;;;7.85;5.22;;;8.90;99.90;;;;;;5022822;28;20034;-60
2021/10/25 05:53:19;;;;;;;7.78;4.88;;;8.90;99.90;;;;;;5026496;28;20389;-60
2021/10/25 05:55:47;;;;;;;7.28;5.22;;;8.90;99.90;;;;;;5011960;28;20022;-60
2021/10/25 05:58:24;;;;;;;8.15;5.40;;;8.90;99.90;;;;;;5006236;28;20068;-60
2021/10/25 06:01:00;;;;;;;5.85;4.68;;;8.90;99.90;;;;;;5032936;28;20017;-59
2021/10/25 06:03:28;;;;;;;6.10;4.22;;;8.90;99.90;;;;;;5033854;28;20076;-60
2021/10/25 06:06:12;;;;;;;6.65;5.13;;;8.90;99.90;;;;;;5028457;28;20014;-60
2021/10/25 06:08:40;;;;;;;6.82;4.32;;;8.90;99.90;;;;;;5020635;28;20145;-60
2021/10/25 06:11:06;;;;;;;9.30;4.72;;;8.90;99.90;;;;;;5025933;28;20437;-60
2021/10/25 06:13:37;;;;;;;8.00;5.07;;;9.00;99.90;;;;;;5016890;28;20100;-60
2021/10/25 06:18:34;;;;;;;8.27;5.15;;;9.00;99.90;;;;;;5019938;28;20112;-60
2021/10/25 06:29:20;;;;;;;8.57;5.00;;;8.90;99.90;;;;;;4969100;28;20142;-60
2021/10/25 06:38:41;;;;;;;9.20;4.68;;;9.00;99.90;;;;;;5011283;28;20577;-60
2021/10/25 06:41:07;;;;;;;6.95;4.45;;;9.00;99.90;;;;;;5027306;28;20026;-60
2021/10/25 06:43:33;;;;;;;7.63;4.70;;;9.00;99.90;;;;;;5013542;28;20021;-60
2021/10/25 06:46:10;;;;;;;8.65;4.90;;;9.00;99.90;;;;;;5026550;28;20015;-60
2021/10/25 06:48:36;;;;;;;7.18;4.80;;;9.10;99.90;;;;;;5019735;28;20052;-60
2021/10/25 06:51:01;;;;;;;7.07;4.95;;;9.10;99.90;;;;;;5032316;28;20481;-60
2021/10/25 06:53:28;;;;;;;9.07;4.80;;;9.10;99.90;;;;;;5028597;28;20034;-60
2021/10/25 06:56:03;;;;;;;7.65;4.90;;;9.10;99.90;;;;;;5028513;28;20026;-59
2021/10/25 06:58:29;;;;;;;8.63;4.90;;;9.20;99.90;;;;;;5027041;28;20021;-60
2021/10/25 07:00:59;;;;;;;8.55;6.03;;;9.20;99.90;;;;;;5022942;28;20478;-60
2021/10/25 07:03:25;;;;;;;7.65;4.50;;;9.20;99.90;;;;;;5023979;28;20075;-60
2021/10/25 07:05:51;;;;;;;9.13;5.47;;;9.20;99.90;;;;;;5016323;28;20049;-60
2021/10/25 07:08:17;;;;;;;9.00;4.28;;;9.20;99.90;;;;;;5019510;28;20025;-60
2021/10/25 07:10:43;;;;;;;7.57;4.05;;;9.30;99.90;;;;;;5029319;28;20547;-60
2021/10/25 07:13:09;;;;;;;8.52;5.15;;;9.30;99.90;;;;;;5030223;28;20025;-61
2021/10/25 07:15:42;;;;;;;8.60;4.78;;;9.30;99.90;;;;;;5029926;28;20030;-60
2021/10/25 07:18:14;;;;;;;10.75;5.38;;;9.30;99.90;;;;;;5029000;28;20022;-60
2021/10/25 08:03:08;;;;;;;7.30;4.28;;;9.80;99.90;;;;;;4933200;28;20083;-60
2021/10/25 08:10:46;;;;;;;7.38;4.85;;;10.00;99.90;;;;;;5017374;28;20516;-59
2021/10/25 08:13:14;;;;;;;;;;;10.00;99.90;;;;;;5029267;28;20485;-59
2021/10/25 08:15:43;;;;;;;6.18;4.20;;;10.00;99.90;;;;;;5026266;28;19910;-60
2021/10/25 08:21:25;;;;;;;6.28;3.97;;;10.00;99.80;;;;;;5015233;28;20053;-60
2021/10/25 08:27:15;;;;;;;7.88;4.15;;;10.10;99.80;;;;;;5011554;28;20029;-57
2021/10/25 08:29:41;;;;;;;7.93;4.75;;;10.10;99.70;;;;;;5017278;28;20049;-57
2021/10/25 08:39:54;;;;;;;7.82;5.20;;;10.20;99.90;;;;;;5020025;28;20029;-61
2021/10/25 08:42:29;;;;;;;8.95;5.30;;;10.30;99.90;;;;;;5019690;28;20076;-59
2021/10/25 08:45:29;;;;;;;9.32;5.00;;;10.30;99.90;;;;;;5034955;28;20014;-61
2021/10/25 08:47:56;;;;;;;7.97;4.47;;;10.30;99.90;;;;;;5034817;28;20053;-59
2021/10/25 08:50:34;;;;;;;7.30;4.93;;;10.30;99.90;;;;;;5022751;28;20029;-61
2021/10/25 08:53:01;;;;;;;6.25;4.57;;;10.30;99.90;;;;;;5003978;28;20558;-60
2021/10/25 08:55:27;;;;;;;7.80;5.82;;;10.30;99.90;;;;;;5016406;28;20088;-57
2021/10/25 08:57:54;;;;;;;8.05;5.30;;;10.40;99.90;;;;;;5003242;28;20025;-60
2021/10/25 09:00:57;;;;;;;;;;;;;;;;;;;;;
2021/10/25 09:03:23;;;;;;;6.97;4.90;;;10.40;99.90;;;;;;5021979;28;20020;-59
2021/10/25 09:06:00;;;;;;;7.63;4.93;;;10.40;99.90;;;;;;5021494;28;20104;-60
2021/10/25 09:08:28;;;;;;;8.70;4.75;;;10.50;99.90;;;;;;5022321;28;20021;-60
2021/10/25 09:10:55;;;;;;;7.75;4.60;;;10.50;99.90;;;;;;5033850;28;20032;-59
2021/10/25 09:13:50;;;;;;;5.03;4.22;;;10.60;99.90;;;;;;5019543;28;20036;-59
2021/10/25 09:16:47;;;;;;;;;;;;;;;;;;;;;
2021/10/25 09:19:20;;;;;;;6.45;4.80;;;10.70;99.90;;;;;;4990719;28;20037;-60
2021/10/25 09:21:46;;;;;;;10.02;5.40;;;10.70;99.60;;;;;;5029234;28;20022;-60
2021/10/25 09:27:47;;;;;;;6.80;4.25;;;10.80;99.70;;;;;;5014837;28;20433;-60
2021/10/25 09:30:20;;;;;;;7.40;4.68;;;10.70;99.70;;;;;;5014619;28;20040;-60
2021/10/25 09:32:47;;;;;;;8.15;4.72;;;10.80;99.60;;;;;;5016240;28;20474;-61
2021/10/25 09:35:29;;;;;;;7.47;4.65;;;10.80;99.70;;;;;;4997075;28;20509;-61
2021/10/25 09:38:02;;;;;;;6.45;4.75;;;10.90;99.60;;;;;;5014575;28;20022;-61
2021/10/25 09:41:00;;;;;;;8.80;5.40;;;10.90;99.60;;;;;;5010577;28;20014;-61
2021/10/25 09:45:03;;;;;;;9.25;5.10;;;11.00;99.50;;;;;;5025648;28;20068;-62
2021/10/25 09:46:22;;;;;;;7.43;4.50;;;11.10;99.60;;;;;;5023199;28;20072;-62
2021/10/25 09:53:03;;;;;;;7.95;5.10;;;11.30;99.40;;;;;;5010957;28;20040;-55
2021/10/25 09:55:39;;;;;;;8.18;4.78;;;11.40;99.30;;;;;;5031612;28;20100;-59
2021/10/25 09:58:15;;;;;;;8.68;4.45;;;11.40;99.10;;;;;;5022424;28;20032;-59
2021/10/25 10:00:41;;;;;;;7.72;4.93;;;11.40;99.10;;;;;;5026932;28;20109;-59
2021/10/25 10:03:07;;;;;;;8.90;4.75;;;11.50;98.90;;;;;;5013800;28;20496;-59
2021/10/25 10:05:36;;;;;;;7.43;4.60;;;11.50;99.00;;;;;;5018029;28;20025;-60
2021/10/25 10:08:03;;;;;;;8.38;4.35;;;11.50;99.00;;;;;;5017582;28;20017;-59
2021/10/25 10:10:29;;;;;;;6.68;5.00;;;11.60;99.10;;;;;;5015552;28;20022;-60
2021/10/25 10:12:55;;;;;;;7.45;4.25;;;11.60;99.10;;;;;;5013866;28;20080;-60
2021/10/25 10:15:50;;;;;;;8.35;5.43;;;11.70;99.30;;;;;;5027563;28;20030;-60
2021/10/25 10:18:21;;;;;;;8.23;4.30;;;11.80;99.10;;;;;;5030444;28;20125;-60
2021/10/25 10:20:52;;;;;;;5.78;4.60;;;11.90;98.90;;;;;;5001228;28;20436;-60
2021/10/25 10:23:20;;;;;;;5.95;3.97;;;12.00;98.60;;;;;;5026549;28;20048;-59
2021/10/25 10:25:53;;;;;;;6.70;4.45;;;12.00;98.60;;;;;;5014298;28;20049;-59
2021/10/25 10:28:47;;;;;;;7.95;4.30;;;12.00;98.60;;;;;;5012060;28;20048;-60
2021/10/25 10:31:25;;;;;;;7.93;4.13;;;12.20;98.60;;;;;;5020263;28;20065;-60
2021/10/25 10:33:57;;;;;;;5.88;4.57;;;12.20;98.50;;;;;;5020203;28;20037;-59
2021/10/25 10:39:26;;;;;;;6.88;4.13;;;12.40;98.30;;;;;;5003528;28;20037;-60
2021/10/25 10:41:52;;;;;;;5.95;4.20;;;12.50;98.00;;;;;;5023908;28;20021;-60
2021/10/25 10:44:19;;;;;;;9.60;4.10;;;12.60;97.80;;;;;;5020538;28;20354;-60
2021/10/25 10:47:00;;;;;;;7.03;4.38;;;12.60;97.60;;;;;;4995530;28;20029;-60
2021/10/25 10:49:53;;;;;;;;;;;;;;;;;;;;;
2021/10/25 10:55:40;;;;;;;8.55;4.20;;;12.70;97.30;;;;;;5001576;28;20039;-60
2021/10/25 11:00:43;;;;;;;7.13;5.28;;;12.60;97.50;;;;;;5028859;28;20026;-60
2021/10/25 11:03:16;;;;;;;11.20;4.82;;;12.60;97.20;;;;;;5024352;28;20029;-59
2021/10/25 11:05:44;;;;;;;6.82;4.07;;;12.60;97.20;;;;;;5030161;28;20028;-60
2021/10/25 11:08:20;;;;;;;7.90;4.72;;;12.60;97.20;;;;;;5030062;28;20026;-60
2021/10/25 11:11:07;;;;;;;6.53;3.75;;;12.60;97.30;;;;;;5023039;28;20556;-60
2021/10/25 11:13:46;;;;;;;7.55;4.78;;;12.60;97.40;;;;;;4994078;28;20127;-60
2021/10/25 11:16:22;;;;;;;6.38;4.50;;;12.60;97.30;;;;;;5011389;28;20029;-60
2021/10/25 11:19:26;;;;;;;;;;;;;;;;;;;;;
2021/10/25 11:22:39;;;;;;;8.70;3.78;;;12.80;97.40;;;;;;5024366;28;20076;-60
2021/10/25 11:25:38;;;;;;;7.82;4.82;;;12.80;97.30;;;;;;4992983;28;20437;-60
2021/10/25 11:28:18;;;;;;;6.13;4.07;;;13.00;97.20;;;;;;5027917;28;20136;-60
2021/10/25 11:30:45;;;;;;;5.75;4.55;;;13.30;96.60;;;;;;5027709;28;20508;-60
2021/10/25 11:33:28;;;;;;;7.38;4.10;;;13.20;96.30;;;;;;5029712;28;20029;-60
2021/10/25 11:35:54;;;;;;;7.43;4.35;;;13.20;96.20;;;;;;5012348;28;20401;-64
2021/10/25 11:38:19;;;;;;;7.85;4.15;;;13.20;96.10;;;;;;5029639;28;20033;-63
2021/10/25 11:40:45;;;;;;;8.80;4.30;;;13.20;96.30;;;;;;5030314;28;20025;-63
2021/10/25 11:43:40;;;;;;;8.00;4.32;;;13.20;96.40;;;;;;5025849;28;20029;-62
2021/10/25 11:46:20;;;;;;;9.25;4.40;;;13.20;96.50;;;;;;5007091;28;20176;-62
2021/10/25 11:49:41;;;;;;;8.23;4.22;;;13.10;96.70;;;;;;5025360;28;20033;-63
2021/10/25 11:52:34;;;;;;;5.82;3.85;;;13.10;96.80;;;;;;5027610;28;20029;-62
2021/10/25 11:55:03;;;;;;;6.15;4.18;;;13.20;96.90;;;;;;5020916;28;20058;-63
2021/10/25 11:57:47;;;;;;;;;;;;;;;;;;;;;
2021/10/25 12:00:13;;;;;;;6.47;4.82;;;13.30;96.70;;;;;;5029403;28;20022;-63
2021/10/25 12:02:38;;;;;;;6.63;3.90;;;13.30;96.70;;;;;;5022732;28;20133;-63
2021/10/25 12:05:05;;;;;;;5.50;3.83;;;13.40;96.70;;;;;;5026979;28;20484;-62
2021/10/25 12:07:32;;;;;;;10.23;4.65;;;13.50;96.70;;;;;;5027311;28;20091;-63
2021/10/25 12:10:06;;;;;;;10.85;4.32;;;13.50;96.30;;;;;;5029524;28;20032;-62
2021/10/25 12:12:35;;;;;;;6.00;4.55;;;13.60;96.30;;;;;;5014452;28;20031;-63
2021/10/25 12:17:49;;;;;;;6.75;4.38;;;13.90;96.10;;;;;;5028155;28;20029;-63
2021/10/25 12:27:02;;;;;;;6.47;3.80;;;14.10;95.20;;;;;;4863021;29;20044;-63
2021/10/25 12:29:28;;;;;;;9.23;4.25;;;14.20;95.10;;;;;;4980919;28;20049;-63
2021/10/25 12:32:19;;;;;;;7.03;4.10;;;14.20;94.90;;;;;;5020853;28;20064;-63
2021/10/25 12:42:36;;;;;;;6.32;3.75;;;14.50;94.30;;;;;;4814018;29;20126;-63
2021/10/25 12:45:03;;;;;;;6.75;4.40;;;14.30;94.50;;;;;;4839506;29;20028;-63
2021/10/25 12:47:32;;;;;;;5.10;4.05;;;14.40;94.90;;;;;;5018857;28;20149;-62
2021/10/25 12:49:59;;;;;;;6.18;3.70;;;14.70;94.90;;;;;;5015034;28;20056;-62
2021/10/25 12:52:30;;;;;;;7.93;4.18;;;14.90;94.20;;;;;;5032757;28;20040;-62
2021/10/25 12:55:14;;;;;;;6.72;4.53;;;14.80;94.20;;;;;;5014061;28;20024;-62
2021/10/25 12:57:40;;;;;;;7.15;4.05;;;14.80;94.60;;;;;;5026136;28;20076;-62
2021/10/25 13:00:12;;;;;;;6.38;4.50;;;14.60;94.50;;;;;;5030925;28;20018;-62
2021/10/25 13:02:52;;;;;;;6.85;4.88;;;14.50;94.40;;;;;;5031283;28;20025;-62
2021/10/25 13:05:26;;;;;;;6.15;4.18;;;14.40;94.50;;;;;;5012756;28;20102;-62
2021/10/25 13:08:03;;;;;;;7.50;4.93;;;14.30;94.90;;;;;;5033102;28;20097;-63
2021/10/25 13:13:35;;;;;;;5.93;4.78;;;14.30;94.90;;;;;;4938343;29;20459;-62
2021/10/25 13:16:01;;;;;;;6.15;4.15;;;14.30;95.00;;;;;;4950373;28;20462;-63
2021/10/25 13:18:27;;;;;;;7.15;4.43;;;14.40;95.10;;;;;;5027891;28;20018;-62
2021/10/25 13:20:54;;;;;;;8.70;4.63;;;14.50;95.20;;;;;;5024685;28;20026;-62
2021/10/25 13:23:22;;;;;;;7.95;4.78;;;14.50;94.80;;;;;;5016543;28;20025;-62
2021/10/25 13:25:48;;;;;;;7.72;4.03;;;14.70;94.40;;;;;;5034496;28;20017;-62
2021/10/25 13:28:14;;;;;;;6.10;4.40;;;14.70;94.00;;;;;;5032905;28;20037;-63
2021/10/25 13:30:40;;;;;;;6.10;4.13;;;14.80;93.90;;;;;;4998087;28;20806;-62
2021/10/25 13:33:06;;;;;;;5.90;3.78;;;14.70;93.90;;;;;;5022310;28;20097;-62
2021/10/25 13:35:31;;;;;;;6.75;4.38;;;14.70;93.90;;;;;;5033434;28;20075;-60
2021/10/25 13:37:57;;;;;;;6.10;4.00;;;14.70;94.00;;;;;;5019913;28;20509;-61
2021/10/25 13:40:27;;;;;;;10.93;4.70;;;14.70;94.10;;;;;;5034080;28;20489;-61
2021/10/25 13:43:01;;;;;;;;;;;14.70;94.20;;;;;;5032072;28;20025;-60
2021/10/25 13:45:38;;;;;;;8.15;3.80;;;14.70;94.30;;;;;;4996086;28;19913;-60
2021/10/25 13:48:04;;;;;;;5.72;4.20;;;14.70;94.40;;;;;;5013290;28;20026;-58
2021/10/25 13:50:29;;;;;;;6.57;4.43;;;14.80;94.50;;;;;;5026574;28;20021;-58
2021/10/25 13:52:55;;;;;;;5.90;4.78;;;14.80;94.30;;;;;;5018009;28;20445;-58
2021/10/25 13:55:20;;;;;;;5.47;3.50;;;14.80;94.40;;;;;;5026799;28;20576;-58
2021/10/25 13:57:48;;;;;;;5.50;4.13;;;14.80;94.50;;;;;;5009567;28;20750;-57
2021/10/25 14:00:35;;;;;;;6.22;4.88;;;14.80;94.50;;;;;;5006142;28;20067;-58
2021/10/25 14:03:01;;;;;;;7.80;4.55;;;14.80;94.10;;;;;;5019730;28;20466;-58
2021/10/25 14:05:27;;;;;;;9.27;5.13;;;14.70;94.10;;;;;;5015200;28;20022;-58
2021/10/25 14:07:52;;;;;;;8.05;4.65;;;14.70;94.30;;;;;;5029346;28;20018;-58
2021/10/25 14:10:25;;;;;;;7.30;5.25;;;14.60;94.30;;;;;;5025799;28;20078;-58
2021/10/25 14:12:52;;;;;;;11.10;4.95;;;14.60;94.50;;;;;;5029953;28;20030;-58
2021/10/25 14:15:26;;;;;;;5.80;4.22;;;14.50;94.50;;;;;;5009241;28;20025;-58
2021/10/25 14:17:53;;;;;;;5.80;4.38;;;14.50;94.80;;;;;;5013865;28;20025;-58
2021/10/25 14:20:22;;;;;;;6.28;4.40;;;14.50;94.80;;;;;;5026297;28;20477;-58
2021/10/25 14:22:58;;;;;;;6.18;4.10;;;14.70;94.80;;;;;;5024347;28;20037;-58
2021/10/25 14:28:43;;;;;;;6.80;4.30;;;15.00;94.30;;;;;;4937290;29;20058;-58
2021/10/25 14:31:46;;;;;;;7.50;3.92;;;15.00;94.10;;;;;;5012935;28;20273;-59
2021/10/25 14:34:13;;;;;;;5.78;3.80;;;15.10;94.00;;;;;;4917853;29;20034;-62
2021/10/25 14:36:42;;;;;;;5.30;4.43;;;15.00;93.90;;;;;;4980938;28;20045;-59
2021/10/25 14:39:17;;;;;;;5.70;3.60;;;15.10;94.00;;;;;;5024319;28;20032;-60
2021/10/25 14:47:21;;;;;;;6.95;4.35;;;15.30;94.30;;;;;;5018218;28;20596;-59
2021/10/25 15:00:58;;;;;;;7.47;4.53;;;15.60;93.50;;;;;;5013543;28;20528;-61
2021/10/25 15:03:24;;;;;;;7.18;5.13;;;15.40;94.20;;;;;;5031561;28;20044;-61
2021/10/25 15:05:52;;;;;;;6.80;4.50;;;15.30;94.00;;;;;;5024909;28;20022;-61
2021/10/25 15:08:18;;;;;;;6.22;4.15;;;15.20;93.90;;;;;;5019709;28;20076;-61
2021/10/25 15:10:45;;;;;;;5.75;4.20;;;15.10;94.00;;;;;;5022390;28;20037;-61
2021/10/25 15:13:13;;;;;;;5.97;4.05;;;15.00;93.90;;;;;;5020682;28;20385;-61
2021/10/25 15:15:39;;;;;;;4.85;3.65;;;15.00;94.10;;;;;;5030360;28;20501;-61
2021/10/25 15:18:04;;;;;;;5.35;3.97;;;14.90;94.20;;;;;;5021727;28;20113;-61
2021/10/25 15:20:30;;;;;;;6.18;4.20;;;14.90;94.30;;;;;;5014801;28;20017;-61
2021/10/25 15:22:57;;;;;;;6.65;3.75;;;14.80;94.30;;;;;;5023514;28;20057;-61
2021/10/25 15:25:29;;;;;;;4.28;3.45;;;14.80;94.30;;;;;;5021918;28;20477;-61
2021/10/25 15:27:55;;;;;;;5.78;4.15;;;14.80;94.40;;;;;;5022839;28;20041;-61
2021/10/25 15:30:20;;;;;;;7.78;4.40;;;14.80;94.50;;;;;;5012238;28;20026;-61
2021/10/25 15:32:46;;;;;;;7.63;4.20;;;14.80;94.60;;;;;;5024855;28;20037;-61
2021/10/25 15:35:12;;;;;;;4.10;3.65;;;14.70;94.70;;;;;;5031397;28;20564;-61
2021/10/25 15:37:50;;;;;;;5.20;3.88;;;14.70;94.80;;;;;;5031979;28;20506;-61
2021/10/25 15:40:46;;;;;;;;;;;;;;;;;;;;;
2021/10/25 15:46:41;;;;;;;5.63;4.03;;;14.60;95.00;;;;;;4966238;28;20545;-61
2021/10/25 15:49:08;;;;;;;6.57;3.45;;;14.40;95.70;;;;;;5023276;28;20105;-61
2021/10/25 15:51:35;;;;;;;6.05;3.60;;;14.40;95.40;;;;;;5028717;28;20028;-61
2021/10/25 15:54:00;;;;;;;6.00;3.83;;;14.30;95.50;;;;;;5030873;28;20037;-61
2021/10/25 15:56:27;;;;;;;5.93;3.95;;;14.30;95.60;;;;;;5025925;28;20029;-61
2021/10/25 15:58:53;;;;;;;4.68;3.55;;;14.30;95.70;;;;;;5020768;28;21101;-61
2021/10/25 16:01:18;;;;;;;4.70;3.88;;;14.20;95.80;;;;;;5017811;28;20029;-61